Nis, Serbia
Current Conditions -  °F | °C
As of 3:00 PM on Saturday 25 Oct 2014 (Local Time) from LYNI Reporting Station
Scattered Clouds Scattered Clouds  
Wind Chill: 42°   Ceiling: Unl
Heat Index: 46°   Visibility: 6mi
Dew Point: 32°   Wind: 9mph
Humidity: 57%   Direction: 30°NNE
Pressure: 30.18"   Gusts: NA
Location:  43.33°N, 21.9°E
Report Text: LYNI 251300Z 03008KT 010V070 9999 FEW023 SCT033 08/00 Q1022
Loading
Personal Weather Stations






























Interactive Weather Map New forecast layout! Learn more

10-Day Weather Forecast

Advertisements
Track Severe Weather on mobile